sensor_id;sensor_type;location;lat;lon;timestamp;pressure;altitude;pressure_sealevel;temperature;humidity
7297;BME280;40758;54.038;11.684;2023-02-07T00:01:40;103986.22;;;-5.40;100.00
7297;BME280;40758;54.038;11.684;2023-02-07T00:04:08;103983.66;;;-5.38;100.00
7297;BME280;40758;54.038;11.684;2023-02-07T00:06:37;103985.03;;;-5.49;100.00
7297;BME280;40758;54.038;11.684;2023-02-07T00:09:07;103976.47;;;-5.44;100.00
7297;BME280;40758;54.038;11.684;2023-02-07T00:11:37;103975.53;;;-5.46;100.00
7297;BME280;40758;54.038;11.684;2023-02-07T00:14:10;103973.59;;;-5.51;100.00
7297;BME280;40758;54.038;11.684;2023-02-07T00:16:39;103980.56;;;-5.52;100.00
7297;BME280;40758;54.038;11.684;2023-02-07T00:19:09;103985.03;;;-5.48;100.00
7297;BME280;40758;54.038;11.684;2023-02-07T00:21:37;103978.22;;;-5.43;100.00
7297;BME280;40758;54.038;11.684;2023-02-07T00:24:07;103988.84;;;-5.40;100.00
7297;BME280;40758;54.038;11.684;2023-02-07T00:26:35;103994.28;;;-5.34;100.00
7297;BME280;40758;54.038;11.684;2023-02-07T00:29:04;103988.97;;;-5.35;100.00
7297;BME280;40758;54.038;11.684;2023-02-07T00:31:34;103984.69;;;-5.33;100.00
7297;BME280;40758;54.038;11.684;2023-02-07T00:34:06;103991.31;;;-5.17;100.00
7297;BME280;40758;54.038;11.684;2023-02-07T00:36:36;103987.56;;;-5.00;100.00
7297;BME280;40758;54.038;11.684;2023-02-07T00:39:08;103977.28;;;-4.93;100.00
7297;BME280;40758;54.038;11.684;2023-02-07T00:41:38;103992.38;;;-4.59;100.00
7297;BME280;40758;54.038;11.684;2023-02-07T00:44:07;103984.22;;;-4.39;100.00
7297;BME280;40758;54.038;11.684;2023-02-07T00:46:37;103970.81;;;-4.19;100.00
7297;BME280;40758;54.038;11.684;2023-02-07T00:49:06;103973.50;;;-4.17;100.00
7297;BME280;40758;54.038;11.684;2023-02-07T00:51:36;103974.03;;;-3.99;100.00
7297;BME280;40758;54.038;11.684;2023-02-07T00:54:05;103965.31;;;-3.98;100.00
7297;BME280;40758;54.038;11.684;2023-02-07T00:56:33;103972.59;;;-3.88;100.00
7297;BME280;40758;54.038;11.684;2023-02-07T00:59:02;103967.81;;;-4.02;100.00
7297;BME280;40758;54.038;11.684;2023-02-07T01:01:30;103955.22;;;-4.14;100.00
7297;BME280;40758;54.038;11.684;2023-02-07T01:04:00;103957.81;;;-4.16;100.00
7297;BME280;40758;54.038;11.684;2023-02-07T01:06:29;103954.69;;;-4.01;100.00
7297;BME280;40758;54.038;11.684;2023-02-07T01:09:01;103946.88;;;-3.99;100.00
7297;BME280;40758;54.038;11.684;2023-02-07T01:11:31;103953.63;;;-3.78;100.00
7297;BME280;40758;54.038;11.684;2023-02-07T01:14:00;103947.13;;;-3.57;100.00
7297;BME280;40758;54.038;11.684;2023-02-07T01:16:31;103944.38;;;-3.29;100.00
7297;BME280;40758;54.038;11.684;2023-02-07T01:19:04;103941.91;;;-3.23;100.00
7297;BME280;40758;54.038;11.684;2023-02-07T01:21:33;103952.13;;;-3.35;100.00
7297;BME280;40758;54.038;11.684;2023-02-07T01:24:02;103958.31;;;-3.32;100.00
7297;BME280;40758;54.038;11.684;2023-02-07T01:26:30;103950.72;;;-3.21;100.00
7297;BME280;40758;54.038;11.684;2023-02-07T01:28:59;103960.00;;;-3.35;100.00
7297;BME280;40758;54.038;11.684;2023-02-07T01:31:28;103947.41;;;-3.48;100.00
7297;BME280;40758;54.038;11.684;2023-02-07T01:33:59;103960.28;;;-3.57;100.00
7297;BME280;40758;54.038;11.684;2023-02-07T01:36:32;103957.06;;;-3.47;100.00
7297;BME280;40758;54.038;11.684;2023-02-07T01:39:00;103961.47;;;-3.46;100.00
7297;BME280;40758;54.038;11.684;2023-02-07T01:41:30;103959.44;;;-3.56;100.00
7297;BME280;40758;54.038;11.684;2023-02-07T01:44:02;103951.31;;;-3.65;100.00
7297;BME280;40758;54.038;11.684;2023-02-07T01:46:33;103955.28;;;-3.48;100.00
7297;BME280;40758;54.038;11.684;2023-02-07T01:49:09;103950.66;;;-3.58;100.00
7297;BME280;40758;54.038;11.684;2023-02-07T01:51:53;103953.28;;;-3.57;100.00
7297;BME280;40758;54.038;11.684;2023-02-07T01:54:22;103952.56;;;-3.51;100.00
7297;BME280;40758;54.038;11.684;2023-02-07T01:57:02;103948.00;;;-3.58;100.00
7297;BME280;40758;54.038;11.684;2023-02-07T01:59:36;103952.06;;;-3.71;100.00
7297;BME280;40758;54.038;11.684;2023-02-07T02:02:13;103946.81;;;-3.70;100.00
7297;BME280;40758;54.038;11.684;2023-02-07T02:04:42;103945.13;;;-3.68;100.00
7297;BME280;40758;54.038;11.684;2023-02-07T02:07:14;103948.44;;;-3.75;100.00
7297;BME280;40758;54.038;11.684;2023-02-07T02:09:42;103951.00;;;-3.78;100.00
7297;BME280;40758;54.038;11.684;2023-02-07T02:12:45;103945.53;;;-3.85;100.00
7297;BME280;40758;54.038;11.684;2023-02-07T02:15:33;103948.09;;;-3.87;100.00
7297;BME280;40758;54.038;11.684;2023-02-07T02:18:30;103947.88;;;-3.96;100.00
7297;BME280;40758;54.038;11.684;2023-02-07T02:22:02;103935.75;;;-3.91;100.00
7297;BME280;40758;54.038;11.684;2023-02-07T02:25:26;103936.06;;;-3.79;100.00
7297;BME280;40758;54.038;11.684;2023-02-07T02:29:10;103924.47;;;-3.87;100.00
7297;BME280;40758;54.038;11.684;2023-02-07T02:32:19;103922.44;;;-3.97;100.00
7297;BME280;40758;54.038;11.684;2023-02-07T02:35:03;103923.50;;;-3.90;100.00
7297;BME280;40758;54.038;11.684;2023-02-07T02:37:44;103917.34;;;-3.91;100.00
7297;BME280;40758;54.038;11.684;2023-02-07T02:40:23;103914.47;;;-4.00;100.00
7297;BME280;40758;54.038;11.684;2023-02-07T02:43:00;103905.53;;;-4.07;100.00
7297;BME280;40758;54.038;11.684;2023-02-07T02:45:38;103903.13;;;-3.99;100.00
7297;BME280;40758;54.038;11.684;2023-02-07T02:48:10;103896.75;;;-4.07;100.00
7297;BME280;40758;54.038;11.684;2023-02-07T02:50:45;103880.84;;;-4.13;100.00
7297;BME280;40758;54.038;11.684;2023-02-07T02:53:15;103880.16;;;-4.07;100.00
7297;BME280;40758;54.038;11.684;2023-02-07T02:56:13;103872.28;;;-4.06;100.00
7297;BME280;40758;54.038;11.684;2023-02-07T02:59:31;103881.63;;;-3.84;100.00
7297;BME280;40758;54.038;11.684;2023-02-07T03:02:18;103877.06;;;-3.91;100.00
7297;BME280;40758;54.038;11.684;2023-02-07T03:05:03;103887.81;;;-3.82;100.00
7297;BME280;40758;54.038;11.684;2023-02-07T03:07:55;103887.81;;;-3.82;100.00
7297;BME280;40758;54.038;11.684;2023-02-07T03:10:34;103885.16;;;-3.84;100.00
7297;BME280;40758;54.038;11.684;2023-02-07T03:13:14;103891.03;;;-3.92;100.00
7297;BME280;40758;54.038;11.684;2023-02-07T03:15:57;103885.84;;;-3.91;100.00
7297;BME280;40758;54.038;11.684;2023-02-07T03:18:44;103895.50;;;-3.88;100.00
7297;BME280;40758;54.038;11.684;2023-02-07T03:21:20;103885.72;;;-3.95;100.00
7297;BME280;40758;54.038;11.684;2023-02-07T03:23:56;103890.50;;;-4.12;100.00
7297;BME280;40758;54.038;11.684;2023-02-07T03:26:27;103879.97;;;-4.14;100.00
7297;BME280;40758;54.038;11.684;2023-02-07T03:28:58;103877.25;;;-4.17;100.00
7297;BME280;40758;54.038;11.684;2023-02-07T03:31:30;103883.13;;;-4.25;100.00
7297;BME280;40758;54.038;11.684;2023-02-07T03:34:05;103874.84;;;-4.40;100.00
7297;BME280;40758;54.038;11.684;2023-02-07T03:36:44;103868.34;;;-4.53;100.00
7297;BME280;40758;54.038;11.684;2023-02-07T03:39:16;103864.88;;;-4.52;100.00
7297;BME280;40758;54.038;11.684;2023-02-07T03:41:52;103864.72;;;-4.57;100.00
7297;BME280;40758;54.038;11.684;2023-02-07T03:44:25;103860.13;;;-4.65;100.00
7297;BME280;40758;54.038;11.684;2023-02-07T03:46:57;103858.38;;;-4.65;100.00
7297;BME280;40758;54.038;11.684;2023-02-07T03:49:25;103851.97;;;-4.74;100.00
7297;BME280;40758;54.038;11.684;2023-02-07T03:51:54;103864.25;;;-4.73;100.00
7297;BME280;40758;54.038;11.684;2023-02-07T03:54:23;103853.41;;;-4.24;100.00
7297;BME280;40758;54.038;11.684;2023-02-07T03:56:51;103843.56;;;-4.31;100.00
7297;BME280;40758;54.038;11.684;2023-02-07T03:59:20;103844.00;;;-4.47;100.00
7297;BME280;40758;54.038;11.684;2023-02-07T04:01:48;103847.19;;;-4.59;100.00
7297;BME280;40758;54.038;11.684;2023-02-07T04:04:17;103838.13;;;-4.70;100.00
7297;BME280;40758;54.038;11.684;2023-02-07T04:06:45;103832.06;;;-4.68;100.00
7297;BME280;40758;54.038;11.684;2023-02-07T04:09:14;103835.00;;;-4.57;100.00
7297;BME280;40758;54.038;11.684;2023-02-07T04:11:47;103842.16;;;-4.52;100.00
7297;BME280;40758;54.038;11.684;2023-02-07T04:14:16;103834.53;;;-4.42;100.00
7297;BME280;40758;54.038;11.684;2023-02-07T04:16:46;103843.41;;;-4.37;100.00
7297;BME280;40758;54.038;11.684;2023-02-07T04:19:14;103852.06;;;-4.41;100.00
7297;BME280;40758;54.038;11.684;2023-02-07T04:21:43;103855.78;;;-4.33;100.00
7297;BME280;40758;54.038;11.684;2023-02-07T04:24:11;103857.66;;;-4.29;100.00
7297;BME280;40758;54.038;11.684;2023-02-07T04:26:40;103868.16;;;-4.29;100.00
7297;BME280;40758;54.038;11.684;2023-02-07T04:29:10;103867.91;;;-4.37;100.00
7297;BME280;40758;54.038;11.684;2023-02-07T04:31:38;103862.19;;;-4.54;100.00
7297;BME280;40758;54.038;11.684;2023-02-07T04:34:08;103871.03;;;-4.52;100.00
7297;BME280;40758;54.038;11.684;2023-02-07T04:36:39;103867.63;;;-4.47;100.00
7297;BME280;40758;54.038;11.684;2023-02-07T04:39:07;103871.81;;;-4.54;100.00
7297;BME280;40758;54.038;11.684;2023-02-07T04:41:35;103881.88;;;-4.39;100.00
7297;BME280;40758;54.038;11.684;2023-02-07T04:44:04;103883.91;;;-4.29;100.00
7297;BME280;40758;54.038;11.684;2023-02-07T04:46:33;103884.00;;;-4.26;100.00
7297;BME280;40758;54.038;11.684;2023-02-07T04:49:03;103882.94;;;-4.33;100.00
7297;BME280;40758;54.038;11.684;2023-02-07T04:51:31;103884.97;;;-4.53;100.00
7297;BME280;40758;54.038;11.684;2023-02-07T04:54:00;103889.94;;;-4.62;100.00
7297;BME280;40758;54.038;11.684;2023-02-07T04:56:28;103880.75;;;-4.77;100.00
7297;BME280;40758;54.038;11.684;2023-02-07T04:58:57;103894.47;;;-4.86;100.00
7297;BME280;40758;54.038;11.684;2023-02-07T05:01:26;103892.00;;;-4.80;100.00
7297;BME280;40758;54.038;11.684;2023-02-07T05:03:56;103891.00;;;-4.85;100.00
7297;BME280;40758;54.038;11.684;2023-02-07T05:06:24;103893.81;;;-4.79;100.00
7297;BME280;40758;54.038;11.684;2023-02-07T05:08:52;103890.53;;;-4.72;100.00
7297;BME280;40758;54.038;11.684;2023-02-07T05:11:21;103891.00;;;-4.85;100.00
7297;BME280;40758;54.038;11.684;2023-02-07T05:13:49;103890.53;;;-5.00;100.00
7297;BME280;40758;54.038;11.684;2023-02-07T05:16:18;103899.38;;;-4.97;100.00
7297;BME280;40758;54.038;11.684;2023-02-07T05:18:48;103901.88;;;-5.00;100.00
7297;BME280;40758;54.038;11.684;2023-02-07T05:21:18;103904.81;;;-5.19;100.00
7297;BME280;40758;54.038;11.684;2023-02-07T05:23:46;103903.31;;;-5.38;100.00
7297;BME280;40758;54.038;11.684;2023-02-07T05:26:15;103902.94;;;-5.48;100.00
7297;BME280;40758;54.038;11.684;2023-02-07T05:28:44;103911.13;;;-5.39;100.00
7297;BME280;40758;54.038;11.684;2023-02-07T05:31:12;103903.22;;;-5.14;100.00
7297;BME280;40758;54.038;11.684;2023-02-07T05:33:40;103915.75;;;-5.04;100.00
7297;BME280;40758;54.038;11.684;2023-02-07T05:36:08;103916.97;;;-5.21;100.00
7297;BME280;40758;54.038;11.684;2023-02-07T05:38:38;103920.66;;;-5.14;100.00
7297;BME280;40758;54.038;11.684;2023-02-07T05:41:06;103908.59;;;-5.09;100.00
7297;BME280;40758;54.038;11.684;2023-02-07T05:43:35;103914.22;;;-5.24;100.00
7297;BME280;40758;54.038;11.684;2023-02-07T05:46:03;103914.22;;;-5.24;100.00
7297;BME280;40758;54.038;11.684;2023-02-07T05:48:32;103911.97;;;-5.13;100.00
7297;BME280;40758;54.038;11.684;2023-02-07T05:51:00;103920.91;;;-5.07;100.00
7297;BME280;40758;54.038;11.684;2023-02-07T05:53:28;103913.50;;;-5.20;100.00
7297;BME280;40758;54.038;11.684;2023-02-07T05:55:58;103913.25;;;-5.27;100.00
7297;BME280;40758;54.038;11.684;2023-02-07T05:58:26;103922.19;;;-5.21;100.00
7297;BME280;40758;54.038;11.684;2023-02-07T06:00:55;103918.53;;;-5.26;100.00
7297;BME280;40758;54.038;11.684;2023-02-07T06:03:23;103911.88;;;-5.42;100.00
7297;BME280;40758;54.038;11.684;2023-02-07T06:05:52;103916.00;;;-5.50;100.00
7297;BME280;40758;54.038;11.684;2023-02-07T06:08:20;103909.41;;;-5.64;100.00
7297;BME280;40758;54.038;11.684;2023-02-07T06:10:48;103909.66;;;-5.82;100.00
7297;BME280;40758;54.038;11.684;2023-02-07T06:13:18;103920.72;;;-5.90;100.00
7297;BME280;40758;54.038;11.684;2023-02-07T06:15:47;103915.88;;;-6.05;100.00
7297;BME280;40758;54.038;11.684;2023-02-07T06:18:15;103913.44;;;-6.23;100.00
7297;BME280;40758;54.038;11.684;2023-02-07T06:20:44;103915.97;;;-6.26;100.00
7297;BME280;40758;54.038;11.684;2023-02-07T06:23:12;103917.25;;;-6.15;100.00
7297;BME280;40758;54.038;11.684;2023-02-07T06:25:40;103923.94;;;-5.99;100.00
7297;BME280;40758;54.038;11.684;2023-02-07T06:28:09;103920.22;;;-6.05;100.00
7297;BME280;40758;54.038;11.684;2023-02-07T06:30:39;103931.38;;;-6.09;100.00
7297;BME280;40758;54.038;11.684;2023-02-07T06:33:08;103925.22;;;-6.11;100.00
7297;BME280;40758;54.038;11.684;2023-02-07T06:35:36;103925.09;;;-6.15;100.00
7297;BME280;40758;54.038;11.684;2023-02-07T06:38:05;103923.88;;;-6.24;100.00
7297;BME280;40758;54.038;11.684;2023-02-07T06:40:33;103927.16;;;-6.30;100.00
7297;BME280;40758;54.038;11.684;2023-02-07T06:43:03;103933.84;;;-6.38;100.00
7297;BME280;40758;54.038;11.684;2023-02-07T06:45:33;103936.31;;;-6.41;100.00
7297;BME280;40758;54.038;11.684;2023-02-07T06:48:03;103942.19;;;-6.48;100.00
7297;BME280;40758;54.038;11.684;2023-02-07T06:50:32;103942.34;;;-6.43;100.00
7297;BME280;40758;54.038;11.684;2023-02-07T06:53:02;103943.94;;;-6.47;100.00
7297;BME280;40758;54.038;11.684;2023-02-07T06:55:35;103940.72;;;-6.40;100.00
7297;BME280;40758;54.038;11.684;2023-02-07T06:58:05;103940.41;;;-6.25;100.00
7297;BME280;40758;54.038;11.684;2023-02-07T07:00:35;103939.59;;;-6.24;100.00
7297;BME280;40758;54.038;11.684;2023-02-07T07:03:05;103946.63;;;-6.22;100.00
7297;BME280;40758;54.038;11.684;2023-02-07T07:05:34;103946.78;;;-6.19;100.00
7297;BME280;40758;54.038;11.684;2023-02-07T07:08:05;103947.16;;;-6.08;100.00
7297;BME280;40758;54.038;11.684;2023-02-07T07:10:38;103950.94;;;-6.00;100.00
7297;BME280;40758;54.038;11.684;2023-02-07T07:13:07;103959.63;;;-6.01;100.00
7297;BME280;40758;54.038;11.684;2023-02-07T07:15:36;103955.44;;;-5.96;100.00
7297;BME280;40758;54.038;11.684;2023-02-07T07:18:06;103947.88;;;-5.88;100.00
7297;BME280;40758;54.038;11.684;2023-02-07T07:20:35;103940.72;;;-5.67;100.00
7297;BME280;40758;54.038;11.684;2023-02-07T07:23:04;103944.06;;;-5.71;100.00
7297;BME280;40758;54.038;11.684;2023-02-07T07:25:32;103940.41;;;-5.76;100.00
7297;BME280;40758;54.038;11.684;2023-02-07T07:28:01;103938.63;;;-5.77;100.00
7297;BME280;40758;54.038;11.684;2023-02-07T07:30:29;103945.66;;;-5.76;100.00
7297;BME280;40758;54.038;11.684;2023-02-07T07:32:58;103945.88;;;-5.70;100.00
7297;BME280;40758;54.038;11.684;2023-02-07T07:35:28;103947.75;;;-5.66;100.00
7297;BME280;40758;54.038;11.684;2023-02-07T07:37:57;103943.81;;;-5.53;100.00
7297;BME280;40758;54.038;11.684;2023-02-07T07:40:28;103951.47;;;-5.34;100.00
7297;BME280;40758;54.038;11.684;2023-02-07T07:42:56;103947.16;;;-5.05;100.00
7297;BME280;40758;54.038;11.684;2023-02-07T07:45:25;103946.56;;;-4.97;100.00
7297;BME280;40758;54.038;11.684;2023-02-07T07:47:53;103950.66;;;-4.78;100.00
7297;BME280;40758;54.038;11.684;2023-02-07T07:50:23;103943.31;;;-4.61;100.00
7297;BME280;40758;54.038;11.684;2023-02-07T07:52:52;103943.53;;;-4.54;100.00
7297;BME280;40758;54.038;11.684;2023-02-07T07:55:21;103941.81;;;-4.53;100.00
7297;BME280;40758;54.038;11.684;2023-02-07T07:57:49;103933.09;;;-4.52;100.00
7297;BME280;40758;54.038;11.684;2023-02-07T08:00:19;103935.31;;;-4.36;100.00
7297;BME280;40758;54.038;11.684;2023-02-07T08:02:47;103930.31;;;-4.28;100.00
7297;BME280;40758;54.038;11.684;2023-02-07T08:05:16;103934.06;;;-4.19;100.00
7297;BME280;40758;54.038;11.684;2023-02-07T08:07:44;103938.94;;;-4.01;100.00
7297;BME280;40758;54.038;11.684;2023-02-07T08:10:15;103939.31;;;-3.87;100.00
7297;BME280;40758;54.038;11.684;2023-02-07T08:12:43;103932.56;;;-3.79;100.00
7297;BME280;40758;54.038;11.684;2023-02-07T08:15:12;103938.81;;;-3.41;100.00
7297;BME280;40758;54.038;11.684;2023-02-07T08:17:40;103943.72;;;-2.83;100.00
7297;BME280;40758;54.038;11.684;2023-02-07T08:20:10;103934.41;;;-2.30;100.00
7297;BME280;40758;54.038;11.684;2023-02-07T08:22:39;103938.47;;;-2.02;100.00
7297;BME280;40758;54.038;11.684;2023-02-07T08:25:08;103942.59;;;-1.71;100.00
7297;BME280;40758;54.038;11.684;2023-02-07T08:27:38;103931.59;;;-1.49;100.00
7297;BME280;40758;54.038;11.684;2023-02-07T08:30:11;103933.78;;;-1.73;100.00
7297;BME280;40758;54.038;11.684;2023-02-07T08:32:41;103931.81;;;-1.34;100.00
7297;BME280;40758;54.038;11.684;2023-02-07T08:35:10;103928.69;;;-1.10;100.00
7297;BME280;40758;54.038;11.684;2023-02-07T08:37:38;103931.44;;;-1.05;100.00
7297;BME280;40758;54.038;11.684;2023-02-07T08:40:08;103929.06;;;-0.86;100.00
7297;BME280;40758;54.038;11.684;2023-02-07T08:42:38;103924.47;;;-1.00;100.00
7297;BME280;40758;54.038;11.684;2023-02-07T08:45:08;103926.00;;;-1.14;100.00
7297;BME280;40758;54.038;11.684;2023-02-07T08:47:37;103921.78;;;-1.03;100.00
7297;BME280;40758;54.038;11.684;2023-02-07T08:50:07;103936.84;;;-0.96;100.00
7297;BME280;40758;54.038;11.684;2023-02-07T08:52:36;103941.13;;;-1.03;100.00
7297;BME280;40758;54.038;11.684;2023-02-07T08:55:05;103945.72;;;-0.91;100.00
7297;BME280;40758;54.038;11.684;2023-02-07T08:57:34;103939.00;;;-0.68;100.00
7297;BME280;40758;54.038;11.684;2023-02-07T09:00:07;103944.59;;;-0.50;100.00
7297;BME280;40758;54.038;11.684;2023-02-07T09:02:36;103942.91;;;-0.42;100.00
7297;BME280;40758;54.038;11.684;2023-02-07T09:05:06;103941.13;;;-0.43;100.00
7297;BME280;40758;54.038;11.684;2023-02-07T09:07:34;103940.28;;;-0.40;100.00
7297;BME280;40758;54.038;11.684;2023-02-07T09:10:03;103945.94;;;-0.13;100.00
7297;BME280;40758;54.038;11.684;2023-02-07T09:12:33;103944.91;;;0.55;100.00
7297;BME280;40758;54.038;11.684;2023-02-07T09:15:03;103950.13;;;0.50;100.00
7297;BME280;40758;54.038;11.684;2023-02-07T09:17:33;103946.41;;;0.31;100.00
7297;BME280;40758;54.038;11.684;2023-02-07T09:20:02;103948.09;;;0.22;100.00
7297;BME280;40758;54.038;11.684;2023-02-07T09:22:31;103944.97;;;0.64;100.00
7297;BME280;40758;54.038;11.684;2023-02-07T09:25:19;103947.19;;;0.21;100.00
7297;BME280;40758;54.038;11.684;2023-02-07T09:27:49;103938.53;;;0.37;100.00
7297;BME280;40758;54.038;11.684;2023-02-07T09:30:17;103935.91;;;0.37;100.00
7297;BME280;40758;54.038;11.684;2023-02-07T09:32:47;103938.50;;;1.39;100.00
7297;BME280;40758;54.038;11.684;2023-02-07T09:35:16;103942.03;;;1.42;100.00
7297;BME280;40758;54.038;11.684;2023-02-07T09:37:46;103941.44;;;2.02;100.00
7297;BME280;40758;54.038;11.684;2023-02-07T09:40:17;103924.75;;;2.58;100.00
7297;BME280;40758;54.038;11.684;2023-02-07T09:42:54;103928.31;;;2.77;100.00
7297;BME280;40758;54.038;11.684;2023-02-07T09:45:28;103913.63;;;4.28;100.00
7297;BME280;40758;54.038;11.684;2023-02-07T09:48:05;103910.88;;;4.40;100.00
7297;BME280;40758;54.038;11.684;2023-02-07T09:50:46;103906.50;;;5.31;100.00
7297;BME280;40758;54.038;11.684;2023-02-07T09:53:22;103890.75;;;5.08;100.00
7297;BME280;40758;54.038;11.684;2023-02-07T09:55:55;103879.69;;;4.56;100.00
7297;BME280;40758;54.038;11.684;2023-02-07T09:58:35;103880.59;;;4.51;100.00
7297;BME280;40758;54.038;11.684;2023-02-07T10:01:11;103879.75;;;4.50;100.00
7297;BME280;40758;54.038;11.684;2023-02-07T10:03:52;103875.31;;;4.46;100.00
7297;BME280;40758;54.038;11.684;2023-02-07T10:06:27;103871.88;;;4.38;100.00
7297;BME280;40758;54.038;11.684;2023-02-07T10:08:59;103868.41;;;5.20;100.00
7297;BME280;40758;54.038;11.684;2023-02-07T10:11:41;103861.44;;;5.10;100.00
7297;BME280;40758;54.038;11.684;2023-02-07T10:14:28;103851.69;;;4.03;100.00
7297;BME280;40758;54.038;11.684;2023-02-07T10:17:22;103864.03;;;5.14;100.00
7297;BME280;40758;54.038;11.684;2023-02-07T10:20:23;103857.53;;;5.38;100.00
7297;BME280;40758;54.038;11.684;2023-02-07T10:23:16;103842.31;;;6.12;100.00
7297;BME280;40758;54.038;11.684;2023-02-07T10:26:03;103829.41;;;5.80;100.00
7297;BME280;40758;54.038;11.684;2023-02-07T10:29:02;103832.72;;;4.47;99.05
7297;BME280;40758;54.038;11.684;2023-02-07T10:31:43;103834.69;;;4.21;99.10
7297;BME280;40758;54.038;11.684;2023-02-07T10:34:20;103840.06;;;4.15;99.44
7297;BME280;40758;54.038;11.684;2023-02-07T10:36:52;103841.13;;;4.95;97.62
7297;BME280;40758;54.038;11.684;2023-02-07T10:39:31;103838.78;;;5.44;95.11
7297;BME280;40758;54.038;11.684;2023-02-07T10:42:00;103850.84;;;5.74;94.72
7297;BME280;40758;54.038;11.684;2023-02-07T10:44:29;103837.16;;;6.01;93.50
7297;BME280;40758;54.038;11.684;2023-02-07T10:47:01;103827.78;;;6.83;89.96
7297;BME280;40758;54.038;11.684;2023-02-07T10:49:31;103822.13;;;5.94;87.95
7297;BME280;40758;54.038;11.684;2023-02-07T10:52:16;103820.75;;;5.66;88.04
7297;BME280;40758;54.038;11.684;2023-02-07T10:54:53;103810.25;;;5.54;85.96
7297;BME280;40758;54.038;11.684;2023-02-07T10:57:24;103810.66;;;5.22;84.80
7297;BME280;40758;54.038;11.684;2023-02-07T11:00:25;103812.56;;;5.08;84.74
7297;BME280;40758;54.038;11.684;2023-02-07T11:02:54;103817.28;;;6.21;85.23
7297;BME280;40758;54.038;11.684;2023-02-07T11:05:39;103813.81;;;5.50;83.71
7297;BME280;40758;54.038;11.684;2023-02-07T11:08:28;103813.00;;;6.11;83.61
7297;BME280;40758;54.038;11.684;2023-02-07T11:10:59;103809.34;;;6.68;82.33
7297;BME280;40758;54.038;11.684;2023-02-07T11:13:48;103808.88;;;6.45;81.76
7297;BME280;40758;54.038;11.684;2023-02-07T11:16:20;103797.63;;;6.26;79.79
7297;BME280;40758;54.038;11.684;2023-02-07T11:18:56;103801.09;;;5.73;79.55
7297;BME280;40758;54.038;11.684;2023-02-07T11:21:29;103799.59;;;6.15;78.61
7297;BME280;40758;54.038;11.684;2023-02-07T11:24:05;103799.56;;;6.67;77.89
7297;BME280;40758;54.038;11.684;2023-02-07T11:26:48;103791.56;;;6.15;77.26
7297;BME280;40758;54.038;11.684;2023-02-07T11:29:21;103798.72;;;4.75;78.01
7297;BME280;40758;54.038;11.684;2023-02-07T11:31:52;103796.91;;;4.80;78.30
7297;BME280;40758;54.038;11.684;2023-02-07T11:34:44;103794.63;;;5.89;78.26
7297;BME280;40758;54.038;11.684;2023-02-07T11:37:23;103789.94;;;6.05;77.50
7297;BME280;40758;54.038;11.684;2023-02-07T11:39:56;103785.22;;;5.62;75.54
7297;BME280;40758;54.038;11.684;2023-02-07T11:42:36;103784.00;;;5.85;74.39
7297;BME280;40758;54.038;11.684;2023-02-07T11:45:13;103777.13;;;6.28;73.53
7297;BME280;40758;54.038;11.684;2023-02-07T11:47:46;103780.09;;;5.49;74.88
7297;BME280;40758;54.038;11.684;2023-02-07T11:50:21;103777.63;;;5.32;74.64
7297;BME280;40758;54.038;11.684;2023-02-07T11:52:54;103788.31;;;5.96;75.86
7297;BME280;40758;54.038;11.684;2023-02-07T11:55:30;103784.50;;;6.11;74.95
7297;BME280;40758;54.038;11.684;2023-02-07T11:58:07;103781.75;;;6.17;74.43
7297;BME280;40758;54.038;11.684;2023-02-07T12:00:37;103769.44;;;5.47;72.93
7297;BME280;40758;54.038;11.684;2023-02-07T12:03:17;103769.47;;;6.56;73.34
7297;BME280;40758;54.038;11.684;2023-02-07T12:05:53;103768.03;;;6.37;70.52
7297;BME280;40758;54.038;11.684;2023-02-07T12:08:27;103766.06;;;5.35;69.47
7297;BME280;40758;54.038;11.684;2023-02-07T12:11:04;103764.84;;;6.17;69.94
7297;BME280;40758;54.038;11.684;2023-02-07T12:13:38;103761.78;;;6.85;69.62
7297;BME280;40758;54.038;11.684;2023-02-07T12:16:13;103734.72;;;5.50;63.14
7297;BME280;40758;54.038;11.684;2023-02-07T12:18:49;103729.44;;;5.46;61.53
7297;BME280;40758;54.038;11.684;2023-02-07T12:21:23;103724.56;;;5.75;61.79
7297;BME280;40758;54.038;11.684;2023-02-07T12:24:00;103709.16;;;6.44;58.52
7297;BME280;40758;54.038;11.684;2023-02-07T12:26:38;103711.88;;;5.92;56.91
7297;BME280;40758;54.038;11.684;2023-02-07T12:29:24;103716.25;;;6.47;57.05
7297;BME280;40758;54.038;11.684;2023-02-07T12:32:04;103698.88;;;6.71;54.02
7297;BME280;40758;54.038;11.684;2023-02-07T12:34:44;103701.69;;;6.63;54.07
7297;BME280;40758;54.038;11.684;2023-02-07T12:37:24;103696.47;;;6.08;53.69
7297;BME280;40758;54.038;11.684;2023-02-07T12:40:02;103691.03;;;5.59;52.98
7297;BME280;40758;54.038;11.684;2023-02-07T12:42:39;103678.06;;;5.35;49.79
7297;BME280;40758;54.038;11.684;2023-02-07T12:45:15;103688.66;;;5.41;49.55
7297;BME280;40758;54.038;11.684;2023-02-07T12:47:55;103682.34;;;5.46;48.88
7297;BME280;40758;54.038;11.684;2023-02-07T12:50:50;103684.72;;;5.05;49.46
7297;BME280;40758;54.038;11.684;2023-02-07T12:53:37;103663.16;;;5.21;48.88
7297;BME280;40758;54.038;11.684;2023-02-07T12:56:28;103680.63;;;4.78;51.17
7297;BME280;40758;54.038;11.684;2023-02-07T12:59:19;103676.03;;;4.10;52.14
7297;BME280;40758;54.038;11.684;2023-02-07T13:02:12;103685.91;;;3.97;53.29
7297;BME280;40758;54.038;11.684;2023-02-07T13:08:04;103653.63;;;3.31;48.40
7297;BME280;40758;54.038;11.684;2023-02-07T13:10:43;103652.44;;;3.72;48.22
7297;BME280;40758;54.038;11.684;2023-02-07T13:13:20;103649.59;;;3.94;47.90
7297;BME280;40758;54.038;11.684;2023-02-07T13:15:57;103649.03;;;4.46;48.03
7297;BME280;40758;54.038;11.684;2023-02-07T13:18:40;103625.94;;;3.64;47.64
7297;BME280;40758;54.038;11.684;2023-02-07T13:21:22;103620.03;;;4.23;48.23
7297;BME280;40758;54.038;11.684;2023-02-07T13:23:58;103623.13;;;3.78;47.98